Time;durP1;ratioP1;P1;durP2;ratioP2;P2;SDS_P1;SDS_P2;PMS_P1;PMS_P2;Temp;Humidity;BMP_temperature;BMP_pressure;BME280_temperature;BME280_humidity;BME280_pressure;Samples;Min_cycle;Max_cycle;Signal;HPM_P1;HPM_P2
2023/10/17 00:03:16;;;;;;;1999.90;999.90;;;;;;;4.38;100.00;97714.97;18627477;31;20087;-55
2023/10/17 00:13:31;;;;;;;1999.90;999.90;;;;;;;4.37;100.00;97702.62;18626757;31;20356;-56
2023/10/17 00:23:34;;;;;;;1999.90;999.90;;;;;;;4.21;100.00;97701.44;18619578;31;20049;-56
2023/10/17 00:33:37;;;;;;;1999.90;999.90;;;;;;;4.19;100.00;97679.44;18611817;31;20056;-56
2023/10/17 00:43:39;;;;;;;1999.90;999.90;;;;;;;4.09;100.00;97671.16;18610617;31;20061;-56
2023/10/17 00:53:42;;;;;;;1999.90;999.90;;;;;;;3.95;100.00;97674.00;18610618;31;20107;-55
2023/10/17 01:03:45;;;;;;;1999.90;999.90;;;;;;;3.99;100.00;97664.47;18625057;31;20076;-56
2023/10/17 01:13:54;;;;;;;1999.90;999.90;;;;;;;3.73;100.00;97647.75;18618584;31;20091;-56
2023/10/17 01:23:57;;;;;;;1999.90;999.90;;;;;;;3.93;100.00;97649.31;18618296;31;20141;-55
2023/10/17 01:33:59;;;;;;;1999.90;999.90;;;;;;;3.94;100.00;97650.16;18623893;31;20108;-56
2023/10/17 01:44:02;;;;;;;1999.90;999.90;;;;;;;4.07;100.00;97642.75;18623376;31;20045;-56
2023/10/17 01:54:12;;;;;;;1999.90;999.90;;;;;;;3.96;100.00;97646.22;18633151;31;20052;-55
2023/10/17 02:04:18;;;;;;;1999.90;999.90;;;;;;;4.11;100.00;97651.16;18634705;31;20416;-56
2023/10/17 02:14:22;;;;;;;1999.90;999.90;;;;;;;4.25;100.00;97651.75;18634045;31;20068;-55
2023/10/17 02:24:25;;;;;;;1999.90;999.90;;;;;;;4.29;100.00;97650.25;18633848;31;20048;-56
2023/10/17 02:34:31;;;;;;;1999.90;999.90;;;;;;;4.25;100.00;97646.41;18632794;31;20376;-56
2023/10/17 02:44:33;;;;;;;1999.90;999.90;;;;;;;4.24;100.00;97652.81;18631967;31;20049;-54
2023/10/17 03:05:18;;;;;;;1999.90;999.90;;;;;;;4.21;100.00;97667.44;18619135;31;20102;-56
2023/10/17 03:15:22;;;;;;;1999.90;999.90;;;;;;;4.25;100.00;97670.50;18615765;31;20410;-57
2023/10/17 03:25:25;;;;;;;1999.90;999.90;;;;;;;4.18;100.00;97683.97;18629624;31;20368;-56
2023/10/17 03:35:31;;;;;;;1999.90;999.90;;;;;;;4.13;100.00;97688.38;18628986;31;20398;-55
2023/10/17 03:45:43;;;;;;;1999.90;999.90;;;;;;;4.03;100.00;97671.00;18628280;31;20059;-56
2023/10/17 03:55:48;;;;;;;1999.90;999.90;;;;;;;4.01;100.00;97651.69;18627928;31;20052;-56
2023/10/17 04:16:10;;;;;;;1999.90;999.90;;;;;;;3.85;100.00;97639.78;18626498;31;20107;-56
2023/10/17 04:26:17;;;;;;;1999.90;999.90;;;;;;;3.94;100.00;97645.63;18626092;31;20116;-56
2023/10/17 04:36:20;;;;;;;1999.90;999.90;;;;;;;3.87;100.00;97636.88;18626142;31;20072;-56
2023/10/17 04:46:25;;;;;;;1999.90;999.90;;;;;;;3.82;100.00;97642.88;18625581;31;20044;-55
2023/10/17 04:56:41;;;;;;;1999.90;999.90;;;;;;;3.67;100.00;97640.66;18619061;31;20388;-55
2023/10/17 06:19:15;;;;;;;1999.90;999.90;;;;;;;3.16;100.00;97623.97;18633596;31;20064;-56
2023/10/17 06:39:24;;;;;;;1999.90;999.90;;;;;;;3.61;100.00;97628.16;18632032;31;20056;-56
2023/10/17 06:49:47;;;;;;;1999.90;999.90;;;;;;;3.84;100.00;97635.47;18631885;31;20187;-55
2023/10/17 07:00:04;;;;;;;1999.90;999.90;;;;;;;4.29;100.00;97639.56;18617196;31;20101;-56
2023/10/17 07:10:58;;;;;;;1999.90;999.90;;;;;;;4.71;100.00;97639.47;18630869;31;20124;-56
2023/10/17 07:31:01;;;;;;;1999.90;999.90;;;;;;;5.52;100.00;97633.41;18629522;31;20063;-55
2023/10/17 07:41:33;;;;;;;1999.90;999.90;;;;;;;5.93;100.00;97649.47;18607423;31;20060;-56
2023/10/17 07:51:35;;;;;;;1999.90;999.90;;;;;;;6.15;100.00;97656.84;18627503;31;20401;-57
2023/10/17 08:01:42;;;;;;;1999.90;999.90;;;;;;;6.40;100.00;97664.53;18613116;31;20044;-57
2023/10/17 08:11:46;;;;;;;1999.90;999.90;;;;;;;6.55;100.00;97677.41;18627179;31;20064;-57
2023/10/17 08:22:09;;;;;;;1999.90;999.90;;;;;;;6.79;100.00;97673.50;18612866;31;20053;-57
2023/10/17 08:52:35;;;;;;;1999.90;999.90;;;;;;;7.51;100.00;97686.31;18610816;31;20041;-57
2023/10/17 09:02:48;;;;;;;1999.90;999.90;;;;;;;7.83;100.00;97677.56;18620266;31;20110;-57
2023/10/17 09:23:28;;;;;;;1999.90;999.90;;;;;;;8.50;100.00;97648.59;18637462;31;20120;-57
2023/10/17 09:33:32;;;;;;;1999.90;999.90;;;;;;;8.76;100.00;97655.03;18622860;31;20056;-58
2023/10/17 09:43:38;;;;;;;1999.90;999.90;;;;;;;8.92;100.00;97650.53;18635832;31;20352;-57
2023/10/17 09:53:44;;;;;;;1999.90;999.90;;;;;;;9.10;100.00;97655.53;18621008;31;20052;-57
2023/10/17 10:03:47;;;;;;;;;;;;;;;9.29;100.00;97663.16;18635084;31;20108;-55
2023/10/17 10:14:04;;;;;;;1999.90;999.90;;;;;;;9.60;100.00;97639.84;18634182;31;20263;-57
2023/10/17 10:24:17;;;;;;;1999.90;999.90;;;;;;;9.87;100.00;97624.50;18626799;31;20132;-57
2023/10/17 10:34:20;;;;;;;1999.90;999.90;;;;;;;9.99;100.00;97634.00;18632885;31;20056;-57
2023/10/17 10:44:23;;;;;;;1999.90;999.90;;;;;;;10.32;100.00;97620.28;18631943;31;20060;-57
2023/10/17 10:54:59;;;;;;;1999.90;999.90;;;;;;;10.60;100.00;97620.84;18632070;31;20075;-57
2023/10/17 11:05:06;;;;;;;1999.90;999.90;;;;;;;10.83;100.00;97603.25;18616723;31;20056;-57
2023/10/17 11:15:14;;;;;;;1999.90;999.90;;;;;;;11.17;100.00;97581.78;18623891;31;20057;-57
2023/10/17 11:25:27;;;;;;;1999.90;999.90;;;;;;;11.35;100.00;97576.84;18629019;31;20121;-57
2023/10/17 11:35:32;;;;;;;1999.90;999.90;;;;;;;11.98;100.00;97570.06;18614964;31;20048;-57
2023/10/17 11:45:40;;;;;;;1999.90;999.90;;;;;;;12.47;100.00;97566.41;18628531;31;20079;-58
2023/10/17 11:55:47;;;;;;;1999.90;999.90;;;;;;;12.85;100.00;97565.75;18628000;31;20040;-58
2023/10/17 12:05:50;;;;;;;1999.90;999.90;;;;;;;13.06;100.00;97558.22;18627502;31;20421;-58
2023/10/17 12:15:56;;;;;;;1999.90;999.90;;;;;;;13.39;100.00;97558.41;18626833;31;20060;-58
2023/10/17 12:26:19;;;;;;;1999.90;999.90;;;;;;;13.70;100.00;97558.81;18599166;31;20496;-58
2023/10/17 12:36:22;;;;;;;1999.90;999.90;;;;;;;13.90;100.00;97541.38;18625805;31;20503;-58
2023/10/17 12:46:25;;;;;;;1999.90;999.90;;;;;;;14.02;100.00;97532.00;18625265;31;20097;-58
2023/10/17 12:56:29;;;;;;;1999.90;999.90;;;;;;;13.81;100.00;97513.25;18625305;31;20049;-57
2023/10/17 13:06:31;;;;;;;1999.90;999.90;;;;;;;13.84;100.00;97501.00;18603394;31;20096;-58
2023/10/17 13:16:34;;;;;;;1999.90;999.90;;;;;;;13.71;100.00;97488.97;18624708;31;20052;-58
2023/10/17 13:26:40;;;;;;;1999.90;999.90;;;;;;;13.55;100.00;97483.78;18624795;31;20068;-58
2023/10/17 13:36:43;;;;;;;1999.90;999.90;;;;;;;13.48;100.00;97475.16;18624071;31;20402;-58
2023/10/17 13:46:45;;;;;;;1999.90;999.90;;;;;;;13.48;100.00;97467.00;18562809;32;20089;-58
2023/10/17 13:56:48;;;;;;;1999.90;999.90;;;;;;;13.72;100.00;97453.34;18569926;31;20330;-58
2023/10/17 14:06:51;;;;;;;1999.90;999.90;;;;;;;13.87;100.00;97457.72;18554793;32;20057;-58
2023/10/17 14:16:56;;;;;;;1999.90;999.90;;;;;;;13.90;100.00;97448.19;18567393;32;20072;-58
2023/10/17 14:26:59;;;;;;;1999.90;999.90;;;;;;;13.82;100.00;97432.56;18567071;32;20423;-58
2023/10/17 14:37:02;;;;;;;1999.90;999.90;;;;;;;13.87;100.00;97425.13;18566807;32;20046;-57
2023/10/17 14:47:08;;;;;;;1999.90;999.90;;;;;;;13.79;100.00;97423.06;18628706;31;20467;-57
2023/10/17 14:57:11;;;;;;;1999.90;999.90;;;;;;;13.64;100.00;97421.41;18624871;31;20056;-56
2023/10/17 15:07:14;;;;;;;1999.90;999.90;;;;;;;13.42;100.00;97391.34;18631044;31;20472;-57
2023/10/17 15:17:18;;;;;;;1999.90;999.90;;;;;;;13.36;100.00;97380.56;18630284;31;20064;-57
2023/10/17 15:27:21;;;;;;;1999.90;999.90;;;;;;;13.19;100.00;97375.62;18629417;31;20087;-55
2023/10/17 15:37:24;;;;;;;1999.90;999.90;;;;;;;12.92;100.00;97380.91;18629769;31;20061;-57
2023/10/17 15:47:27;;;;;;;1999.90;999.90;;;;;;;12.64;100.00;97383.44;18612952;31;20078;-56
2023/10/17 15:57:31;;;;;;;1999.90;999.90;;;;;;;12.26;100.00;97377.91;18627685;31;20384;-55
2023/10/17 16:07:39;;;;;;;1999.90;999.90;;;;;;;12.15;100.00;97378.00;18626894;31;20052;-56
2023/10/17 16:17:42;;;;;;;1999.90;999.90;;;;;;;11.98;100.00;97383.88;18626654;31;20082;-57
2023/10/17 16:27:47;;;;;;;1999.90;999.90;;;;;;;11.85;100.00;97390.75;18626460;31;20428;-56
2023/10/17 16:37:50;;;;;;;1999.90;999.90;;;;;;;11.77;100.00;97398.66;18626059;31;20103;-56
2023/10/17 16:47:54;;;;;;;1999.90;999.90;;;;;;;11.45;100.00;97403.53;18618995;31;20075;-56
2023/10/17 16:57:57;;;;;;;1999.90;999.90;;;;;;;11.09;100.00;97390.25;18597866;31;20060;-55
2023/10/17 17:08:00;;;;;;;1999.90;999.90;;;;;;;10.65;100.00;97391.03;18624794;31;20102;-57
2023/10/17 17:18:04;;;;;;;1999.90;999.90;;;;;;;10.48;100.00;97394.87;18613426;31;20097;-57
2023/10/17 17:28:27;;;;;;;1999.90;999.90;;;;;;;10.20;100.00;97396.28;18625651;31;20056;-56
2023/10/17 17:38:29;;;;;;;1999.90;999.90;;;;;;;9.79;100.00;97401.75;18622162;31;20049;-56
2023/10/17 17:48:32;;;;;;;1999.90;999.90;;;;;;;9.58;100.00;97398.22;18621468;31;20048;-54
2023/10/17 17:58:35;;;;;;;1999.90;999.90;;;;;;;9.51;100.00;97398.53;18635430;31;20067;-56
2023/10/17 18:08:38;;;;;;;1999.90;999.90;;;;;;;9.27;100.00;97398.22;18607427;31;20041;-56
2023/10/17 18:18:42;;;;;;;1999.90;999.90;;;;;;;9.21;100.00;97393.87;18634239;31;20045;-55
2023/10/17 18:28:45;;;;;;;1999.90;999.90;;;;;;;9.01;100.00;97392.78;18633161;31;20048;-57
2023/10/17 18:38:49;;;;;;;1999.90;999.90;;;;;;;8.80;100.00;97387.34;18626314;31;20061;-55
2023/10/17 18:48:52;;;;;;;1999.90;999.90;;;;;;;8.74;100.00;97388.41;18632277;31;20153;-57
2023/10/17 18:58:56;;;;;;;1999.90;999.90;;;;;;;8.48;100.00;97385.63;18617625;31;20052;-57
2023/10/17 19:08:59;;;;;;;1999.90;999.90;;;;;;;8.39;100.00;97392.56;18631195;31;20079;-56
2023/10/17 19:19:01;;;;;;;1999.90;999.90;;;;;;;8.35;100.00;97380.69;18630254;31;20056;-56
2023/10/17 19:29:04;;;;;;;1999.90;999.90;;;;;;;8.12;100.00;97388.09;18602295;31;20056;-57
2023/10/17 19:39:06;;;;;;;1999.90;999.90;;;;;;;8.12;100.00;97392.69;18629019;31;20062;-55
2023/10/17 19:49:09;;;;;;;1999.90;999.90;;;;;;;8.07;100.00;97393.47;18614153;31;20048;-56
2023/10/17 19:59:12;;;;;;;1999.90;999.90;;;;;;;7.91;100.00;97391.75;18627989;31;20060;-56
2023/10/17 20:09:15;;;;;;;1999.90;999.90;;;;;;;7.95;100.00;97395.56;18613650;31;20103;-56
2023/10/17 20:19:18;;;;;;;1999.90;999.90;;;;;;;7.81;100.00;97387.09;18612799;31;20071;-56
2023/10/17 20:29:22;;;;;;;1999.90;999.90;;;;;;;7.68;100.00;97361.44;18619694;31;20083;-55
2023/10/17 20:39:29;;;;;;;1999.90;999.90;;;;;;;7.59;100.00;97352.22;18625838;31;20137;-56
2023/10/17 20:49:36;;;;;;;1999.90;999.90;;;;;;;7.55;100.00;97351.94;18625749;31;20056;-54
2023/10/17 20:59:39;;;;;;;1999.90;999.90;;;;;;;7.43;100.00;97362.88;18644982;31;20048;-54
2023/10/17 21:09:41;;;;;;;1999.90;999.90;;;;;;;7.32;100.00;97363.06;18647002;31;20413;-55
2023/10/17 21:19:44;;;;;;;1999.90;999.90;;;;;;;7.15;100.00;97345.16;18646340;31;20057;-56
2023/10/17 21:29:46;;;;;;;1999.90;999.90;;;;;;;7.04;100.00;97357.69;18646481;31;20087;-57
2023/10/17 21:39:48;;;;;;;1999.90;999.90;;;;;;;6.87;100.00;97348.94;18645824;31;20085;-54
2023/10/17 21:49:55;;;;;;;1999.90;999.90;;;;;;;6.75;100.00;97349.91;18631197;31;20056;-56
2023/10/17 21:59:57;;;;;;;1999.90;999.90;;;;;;;6.69;100.00;97345.53;18645549;31;20060;-54
2023/10/17 22:10:02;;;;;;;1999.90;999.90;;;;;;;6.59;100.00;97329.31;18636385;31;20045;-53
2023/10/17 22:20:08;;;;;;;1999.90;999.90;;;;;;;6.37;100.00;97322.12;18627874;31;20052;-55
2023/10/17 22:30:11;;;;;;;1999.90;999.90;;;;;;;6.40;100.00;97324.28;18633826;31;20114;-56
2023/10/17 22:40:14;;;;;;;1999.90;999.90;;;;;;;6.34;100.00;97317.22;18618506;31;20097;-55
2023/10/17 22:50:16;;;;;;;1999.90;999.90;;;;;;;6.14;100.00;97301.69;18632511;31;20068;-54
2023/10/17 23:00:19;;;;;;;1999.90;999.90;;;;;;;6.16;100.00;97301.44;18617517;31;20045;-56
2023/10/17 23:10:21;;;;;;;1999.90;999.90;;;;;;;6.12;100.00;97292.28;18631135;31;20048;-55
2023/10/17 23:20:24;;;;;;;1999.90;999.90;;;;;;;6.05;100.00;97273.66;18630156;31;20049;-56
2023/10/17 23:30:26;;;;;;;1999.90;999.90;;;;;;;6.05;100.00;97266.41;18630337;31;20048;-55
2023/10/17 23:40:29;;;;;;;1999.90;999.90;;;;;;;5.98;100.00;97255.06;18614973;31;20053;-55
2023/10/17 23:50:32;;;;;;;1999.90;999.90;;;;;;;5.89;100.00;97251.16;18628757;31;20074;-56
